createdAt,value
2022-10-02T00:00:56.088Z,4.70
2022-10-02T00:01:56.304Z,4.30
2022-10-02T00:02:56.088Z,4.50
2022-10-02T00:03:56.129Z,4.30
2022-10-02T00:04:56.035Z,4.60
2022-10-02T00:05:56.029Z,4.30
2022-10-02T00:06:56.058Z,4.10
2022-10-02T00:07:56.060Z,4.60
2022-10-02T00:08:55.990Z,4.20
2022-10-02T00:09:56.058Z,4.70
2022-10-02T00:10:55.977Z,4.00
2022-10-02T00:11:55.956Z,4.50
2022-10-02T00:12:55.977Z,5.10
2022-10-02T00:13:55.978Z,4.30
2022-10-02T00:14:55.918Z,4.30
2022-10-02T00:15:55.997Z,5.10
2022-10-02T00:16:55.966Z,4.50
2022-10-02T00:17:55.908Z,4.50
2022-10-02T00:18:55.879Z,4.60
2022-10-02T00:19:55.887Z,4.90
2022-10-02T00:20:55.967Z,5.00
2022-10-02T00:21:55.858Z,4.90
2022-10-02T00:22:55.877Z,4.50
2022-10-02T00:23:55.827Z,4.30
2022-10-02T00:24:55.817Z,4.90
2022-10-02T00:25:55.809Z,4.60
2022-10-02T00:26:55.867Z,5.00
2022-10-02T00:27:56.017Z,5.10
2022-10-02T00:28:55.786Z,4.90
2022-10-02T00:29:55.798Z,5.00
2022-10-02T00:30:55.774Z,4.90
2022-10-02T00:31:55.811Z,4.70
2022-10-02T00:32:55.767Z,5.80
2022-10-02T00:33:55.717Z,4.90
2022-10-02T00:34:55.737Z,4.70
2022-10-02T00:35:55.727Z,5.10
2022-10-02T00:36:55.678Z,5.10
2022-10-02T00:37:55.815Z,4.40
2022-10-02T00:38:55.680Z,4.80
2022-10-02T00:39:55.650Z,4.70
2022-10-02T00:40:55.659Z,5.80
2022-10-02T00:41:55.627Z,5.00
2022-10-02T00:42:55.820Z,4.60
2022-10-02T00:43:55.597Z,5.10
2022-10-02T00:44:55.595Z,4.70
2022-10-02T00:45:55.639Z,4.70
2022-10-02T00:46:55.595Z,5.40
2022-10-02T00:47:55.596Z,5.00
2022-10-02T00:48:55.605Z,4.90
2022-10-02T00:49:55.616Z,5.60
2022-10-02T00:50:55.586Z,5.10
2022-10-02T00:51:55.528Z,4.90
2022-10-02T00:52:55.535Z,4.70
2022-10-02T00:53:55.507Z,5.40
2022-10-02T00:54:55.506Z,5.10
2022-10-02T00:55:55.476Z,5.40
2022-10-02T00:56:55.557Z,5.30
2022-10-02T00:57:55.457Z,4.70
2022-10-02T00:58:55.456Z,5.10
2022-10-02T00:59:55.445Z,5.10
2022-10-02T01:00:55.468Z,5.30
2022-10-02T01:01:55.587Z,5.00
2022-10-02T01:02:55.487Z,5.20
2022-10-02T01:03:55.396Z,5.10
2022-10-02T01:04:55.386Z,5.40
2022-10-02T01:05:55.386Z,5.20
2022-10-02T01:06:55.356Z,5.40
2022-10-02T01:07:55.345Z,5.00
2022-10-02T01:08:55.375Z,5.20
2022-10-02T01:09:55.336Z,5.10
2022-10-02T01:10:55.314Z,4.80
2022-10-02T01:11:55.355Z,4.80
2022-10-02T01:12:55.294Z,5.30
2022-10-02T01:13:55.286Z,5.50
2022-10-02T01:14:55.326Z,5.20
2022-10-02T01:15:55.277Z,5.20
2022-10-02T01:16:55.289Z,5.70
2022-10-02T01:17:55.249Z,5.60
2022-10-02T01:18:55.275Z,5.60
2022-10-02T01:19:55.215Z,4.90
2022-10-02T01:20:55.217Z,5.00
2022-10-02T01:21:55.203Z,5.00
2022-10-02T01:22:55.195Z,5.60
2022-10-02T01:23:55.183Z,5.10
2022-10-02T01:24:56.726Z,5.10
2022-10-02T01:25:55.163Z,6.00
2022-10-02T01:26:55.157Z,5.60
2022-10-02T01:27:55.257Z,5.40
2022-10-02T01:28:55.134Z,5.80
2022-10-02T01:29:55.102Z,5.40
2022-10-02T01:30:55.135Z,5.40
2022-10-02T01:31:55.137Z,5.40
2022-10-02T01:32:55.117Z,4.70
2022-10-02T01:33:55.066Z,5.60
2022-10-02T01:34:55.057Z,4.80
2022-10-02T01:35:55.076Z,5.00
2022-10-02T01:36:55.077Z,5.20
2022-10-02T01:37:55.044Z,5.50
2022-10-02T01:38:55.024Z,4.60
2022-10-02T01:39:55.022Z,5.10
2022-10-02T01:40:54.996Z,4.90
2022-10-02T01:41:54.975Z,4.80
2022-10-02T01:42:55.025Z,5.50
2022-10-02T01:43:54.965Z,4.80
2022-10-02T01:44:54.996Z,5.40
2022-10-02T01:46:02.534Z,4.80
2022-10-02T01:46:54.953Z,4.90
2022-10-02T01:47:54.944Z,5.20
2022-10-02T01:48:54.984Z,5.20
2022-10-02T01:49:54.964Z,5.10
2022-10-02T01:50:54.893Z,5.10
2022-10-02T01:51:54.945Z,5.10
2022-10-02T01:52:54.874Z,5.20
2022-10-02T01:53:54.946Z,5.20
2022-10-02T01:54:54.824Z,4.90
2022-10-02T01:55:54.834Z,5.10
2022-10-02T01:56:54.824Z,5.10
2022-10-02T01:57:54.805Z,5.10
2022-10-02T01:58:54.815Z,4.90
2022-10-02T01:59:54.835Z,5.50
2022-10-02T02:00:54.831Z,5.10
2022-10-02T02:01:54.863Z,5.70
2022-10-02T02:02:54.743Z,4.90
2022-10-02T02:03:54.746Z,5.70
2022-10-02T02:04:54.762Z,4.70
2022-10-02T02:05:54.753Z,5.40
2022-10-02T02:06:54.751Z,5.30
2022-10-02T02:07:54.703Z,5.10
2022-10-02T02:08:58.471Z,5.20
2022-10-02T02:09:55.711Z,5.60
2022-10-02T02:10:54.682Z,5.40
2022-10-02T02:11:54.633Z,5.50
2022-10-02T02:12:54.631Z,5.30
2022-10-02T02:13:54.614Z,5.30
2022-10-02T02:14:54.605Z,5.40
2022-10-02T02:15:54.615Z,5.40
2022-10-02T02:16:54.602Z,5.10
2022-10-02T02:17:54.572Z,6.20
2022-10-02T02:18:54.555Z,5.30
2022-10-02T02:19:54.579Z,5.10
2022-10-02T02:20:54.545Z,5.50
2022-10-02T02:21:54.573Z,5.70
2022-10-02T02:22:54.543Z,6.00
2022-10-02T02:23:54.535Z,5.50
2022-10-02T02:24:54.544Z,5.60
2022-10-02T02:25:54.569Z,6.70
2022-10-02T02:26:54.523Z,5.30
2022-10-02T02:27:54.505Z,5.90
2022-10-02T02:28:54.533Z,6.10
2022-10-02T02:29:54.470Z,5.90
2022-10-02T02:30:54.443Z,6.20
2022-10-02T02:31:54.499Z,5.50
2022-10-02T02:32:54.483Z,6.40
2022-10-02T02:33:54.482Z,6.60
2022-10-02T02:34:54.423Z,6.10
2022-10-02T02:35:54.433Z,6.60
2022-10-02T02:36:54.423Z,6.10
2022-10-02T02:37:54.392Z,6.00
2022-10-02T02:38:54.352Z,6.50
2022-10-02T02:39:54.442Z,6.10
2022-10-02T02:40:54.353Z,6.10
2022-10-02T02:41:54.432Z,6.70
2022-10-02T02:42:54.313Z,6.10
2022-10-02T02:43:54.303Z,5.90
2022-10-02T02:44:54.314Z,5.90
2022-10-02T02:45:54.368Z,7.10
2022-10-02T02:46:54.275Z,5.80
2022-10-02T02:47:54.310Z,6.70
2022-10-02T02:48:54.243Z,5.60
2022-10-02T02:49:54.304Z,6.00
2022-10-02T02:50:54.222Z,6.80
2022-10-02T02:51:54.280Z,5.70
2022-10-02T02:52:54.263Z,6.20
2022-10-02T02:53:54.191Z,6.90
2022-10-02T02:54:54.192Z,5.60
2022-10-02T02:55:54.212Z,5.80
2022-10-02T02:56:54.154Z,5.70
2022-10-02T02:57:55.888Z,5.60
2022-10-02T02:58:54.143Z,5.40
2022-10-02T02:59:54.134Z,5.60
2022-10-02T03:00:54.183Z,5.40
2022-10-02T03:01:54.196Z,4.60
2022-10-02T03:02:54.253Z,6.10
2022-10-02T03:03:54.103Z,5.20
2022-10-02T03:04:54.072Z,5.50
2022-10-02T03:05:54.083Z,5.20
2022-10-02T03:06:54.072Z,5.60
2022-10-02T03:07:54.044Z,5.70
2022-10-02T03:08:54.099Z,5.00
2022-10-02T03:09:54.052Z,4.50
2022-10-02T03:10:54.061Z,6.10
2022-10-02T03:11:54.018Z,5.20
2022-10-02T03:12:54.022Z,5.00
2022-10-02T03:13:54.032Z,5.20
2022-10-02T03:14:54.011Z,5.50
2022-10-02T03:15:54.008Z,5.60
2022-10-02T03:16:53.983Z,5.40
2022-10-02T03:17:53.932Z,5.20
2022-10-02T03:18:53.920Z,4.70
2022-10-02T03:19:53.932Z,5.80
2022-10-02T03:20:53.911Z,5.50
2022-10-02T03:21:53.892Z,5.60
2022-10-02T03:22:53.903Z,5.70
2022-10-02T03:23:53.912Z,4.80
2022-10-02T03:24:53.901Z,5.50
2022-10-02T03:25:53.841Z,5.40
2022-10-02T03:26:53.851Z,5.80
2022-10-02T03:27:53.892Z,5.20
2022-10-02T03:28:56.400Z,5.90
2022-10-02T03:29:53.802Z,5.20
2022-10-02T03:30:53.832Z,6.40
2022-10-02T03:31:53.970Z,5.00
2022-10-02T03:32:53.856Z,5.70
2022-10-02T03:33:53.830Z,5.60
2022-10-02T03:34:53.761Z,5.80
2022-10-02T03:35:53.739Z,5.80
2022-10-02T03:36:53.783Z,6.00
2022-10-02T03:37:53.753Z,6.00
2022-10-02T03:39:19.869Z,5.70
2022-10-02T03:39:54.692Z,5.60
2022-10-02T03:40:53.789Z,5.80
2022-10-02T03:41:53.702Z,5.50
2022-10-02T03:42:53.687Z,7.40
2022-10-02T03:43:53.652Z,5.40
2022-10-02T03:44:53.633Z,5.70
2022-10-02T03:45:53.651Z,5.80
2022-10-02T03:46:53.743Z,5.80
2022-10-02T03:47:53.659Z,5.30
2022-10-02T03:48:53.602Z,6.20
2022-10-02T03:49:53.589Z,5.00
2022-10-02T03:50:53.613Z,5.40
2022-10-02T03:51:53.572Z,5.60
2022-10-02T03:52:53.552Z,5.00
2022-10-02T03:53:53.571Z,5.40
2022-10-02T03:54:53.578Z,5.40
2022-10-02T03:55:53.520Z,4.90
2022-10-02T03:56:53.522Z,4.90
2022-10-02T03:57:53.488Z,5.50
2022-10-02T03:58:53.488Z,5.40
2022-10-02T03:59:53.493Z,5.30
2022-10-02T04:00:53.501Z,5.50
2022-10-02T04:01:53.502Z,5.90
2022-10-02T04:02:53.451Z,5.70
2022-10-02T04:03:53.526Z,5.70
2022-10-02T04:04:53.442Z,5.90
2022-10-02T04:05:53.425Z,5.20
2022-10-02T04:06:53.446Z,5.30
2022-10-02T04:07:53.381Z,5.90
2022-10-02T04:08:53.372Z,5.60
2022-10-02T04:09:53.411Z,5.20
2022-10-02T04:10:53.345Z,5.40
2022-10-02T04:11:53.422Z,5.30
2022-10-02T04:12:53.321Z,5.40
2022-10-02T04:13:53.331Z,5.40
2022-10-02T04:14:53.310Z,5.50
2022-10-02T04:15:53.355Z,5.40
2022-10-02T04:16:53.291Z,5.40
2022-10-02T04:17:58.169Z,6.00
2022-10-02T04:18:54.272Z,5.60
2022-10-02T04:19:53.270Z,5.40
2022-10-02T04:20:53.230Z,5.10
2022-10-02T04:21:53.242Z,6.00
2022-10-02T04:22:53.212Z,5.30
2022-10-02T04:23:53.260Z,6.10
2022-10-02T04:24:53.203Z,5.40
2022-10-02T04:25:53.187Z,5.60
2022-10-02T04:26:53.179Z,6.10
2022-10-02T04:27:53.288Z,5.70
2022-10-02T04:28:53.151Z,5.70
2022-10-02T04:29:53.159Z,5.30
2022-10-02T04:30:54.280Z,5.70
2022-10-02T04:31:53.185Z,5.40
2022-10-02T04:32:53.101Z,5.00
2022-10-02T04:33:53.083Z,5.20
2022-10-02T04:34:53.066Z,5.80
2022-10-02T04:35:53.061Z,5.10
2022-10-02T04:36:53.102Z,6.40
2022-10-02T04:37:53.039Z,5.30
2022-10-02T04:38:53.021Z,5.80
2022-10-02T04:39:53.070Z,6.10
2022-10-02T04:40:53.005Z,4.80
2022-10-02T04:41:53.030Z,5.80
2022-10-02T04:42:53.057Z,6.50
2022-10-02T04:43:53.000Z,5.70
2022-10-02T04:44:52.999Z,6.30
2022-10-02T04:45:53.151Z,5.90
2022-10-02T04:46:52.940Z,6.10
2022-10-02T04:47:52.971Z,6.00
2022-10-02T04:48:52.931Z,6.40
2022-10-02T04:49:52.979Z,6.00
2022-10-02T04:50:52.948Z,6.60
2022-10-02T04:51:52.901Z,6.30
2022-10-02T04:52:52.881Z,5.90
2022-10-02T04:53:52.882Z,6.00
2022-10-02T04:54:52.861Z,5.80
2022-10-02T04:55:52.991Z,6.20
2022-10-02T04:56:52.931Z,6.20
2022-10-02T04:57:52.841Z,6.00
2022-10-02T04:58:52.840Z,6.20
2022-10-02T04:59:52.842Z,5.60
2022-10-02T05:00:58.041Z,5.50
2022-10-02T05:01:52.864Z,6.20
2022-10-02T05:02:52.773Z,6.30
2022-10-02T05:03:52.780Z,6.70
2022-10-02T05:04:52.771Z,6.30
2022-10-02T05:05:52.767Z,5.60
2022-10-02T05:06:52.770Z,5.90
2022-10-02T05:07:52.761Z,5.70
2022-10-02T05:08:52.709Z,5.40
2022-10-02T05:09:52.740Z,5.80
2022-10-02T05:10:52.729Z,5.50
2022-10-02T05:11:52.751Z,5.50
2022-10-02T05:12:52.680Z,5.50
2022-10-02T05:13:52.736Z,5.40
2022-10-02T05:14:52.662Z,5.80
2022-10-02T05:15:52.697Z,5.50
2022-10-02T05:16:53.340Z,5.50
2022-10-02T05:17:52.639Z,5.60
2022-10-02T05:18:52.659Z,5.90
2022-10-02T05:19:52.590Z,5.40
2022-10-02T05:20:52.609Z,5.60
2022-10-02T05:21:52.630Z,5.80
2022-10-02T05:22:52.619Z,6.40
2022-10-02T05:23:52.597Z,6.30
2022-10-02T05:24:52.549Z,6.60
2022-10-02T05:25:52.559Z,6.30
2022-10-02T05:26:52.610Z,6.20
2022-10-02T05:27:52.562Z,6.30
2022-10-02T05:28:52.640Z,6.00
2022-10-02T05:29:52.517Z,6.40
2022-10-02T05:30:52.486Z,6.30
2022-10-02T05:31:52.585Z,6.70
2022-10-02T05:32:52.504Z,5.20
2022-10-02T05:33:52.489Z,5.90
2022-10-02T05:34:52.509Z,5.60
2022-10-02T05:35:52.467Z,6.40
2022-10-02T05:36:52.511Z,5.50
2022-10-02T05:37:52.421Z,6.50
2022-10-02T05:38:52.387Z,6.00
2022-10-02T05:39:52.390Z,6.20
2022-10-02T05:40:52.428Z,5.30
2022-10-02T05:41:52.389Z,5.30
2022-10-02T05:42:52.388Z,5.80
2022-10-02T05:43:52.350Z,5.80
2022-10-02T05:44:52.349Z,5.90
2022-10-02T05:45:52.328Z,5.90
2022-10-02T05:46:52.374Z,5.30
2022-10-02T05:47:52.741Z,5.10
2022-10-02T05:48:52.270Z,5.70
2022-10-02T05:49:52.317Z,5.40
2022-10-02T05:50:52.274Z,5.00
2022-10-02T05:51:52.259Z,4.70
2022-10-02T05:52:52.235Z,5.00
2022-10-02T05:53:52.320Z,5.20
2022-10-02T05:54:52.229Z,4.90
2022-10-02T05:55:52.240Z,5.40
2022-10-02T05:56:52.213Z,4.80
2022-10-02T05:57:52.297Z,4.60
2022-10-02T05:58:52.183Z,4.60
2022-10-02T05:59:52.227Z,4.40
2022-10-02T06:00:52.209Z,4.60
2022-10-02T06:01:52.225Z,4.10
2022-10-02T06:02:52.149Z,4.80
2022-10-02T06:03:52.227Z,4.30
2022-10-02T06:04:52.109Z,4.40
2022-10-02T06:05:52.130Z,4.40
2022-10-02T06:06:52.138Z,3.90
2022-10-02T06:07:52.058Z,3.50
2022-10-02T06:08:52.060Z,3.70
2022-10-02T06:09:52.107Z,3.80
2022-10-02T06:10:52.131Z,4.00
2022-10-02T06:11:52.029Z,4.00
2022-10-02T06:12:52.048Z,3.60
2022-10-02T06:13:52.028Z,4.00
2022-10-02T06:14:52.029Z,3.70
2022-10-02T06:15:52.039Z,4.10
2022-10-02T06:16:52.112Z,3.30
2022-10-02T06:17:51.978Z,4.30
2022-10-02T06:18:51.998Z,4.30
2022-10-02T06:20:02.320Z,3.80
2022-10-02T06:20:53.009Z,3.90
2022-10-02T06:21:51.947Z,4.30
2022-10-02T06:22:51.938Z,4.10
2022-10-02T06:23:51.990Z,4.00
2022-10-02T06:24:51.922Z,4.00
2022-10-02T06:25:51.875Z,4.10
2022-10-02T06:26:51.948Z,4.10
2022-10-02T06:27:51.898Z,3.90
2022-10-02T06:28:51.831Z,4.80
2022-10-02T06:29:51.825Z,3.90
2022-10-02T06:30:51.949Z,4.30
2022-10-02T06:31:51.877Z,4.00
2022-10-02T06:32:51.822Z,3.60
2022-10-02T06:33:51.829Z,4.30
2022-10-02T06:34:51.779Z,4.50
2022-10-02T06:35:51.835Z,4.10
2022-10-02T06:36:51.906Z,4.30
2022-10-02T06:37:51.768Z,4.20
2022-10-02T06:38:51.737Z,3.90
2022-10-02T06:39:51.747Z,4.60
2022-10-02T06:40:51.698Z,4.30
2022-10-02T06:41:51.949Z,3.90
2022-10-02T06:42:51.707Z,4.30
2022-10-02T06:44:00.686Z,3.90
2022-10-02T06:44:51.705Z,4.10
2022-10-02T06:45:51.694Z,4.20
2022-10-02T06:46:51.679Z,4.10
2022-10-02T06:47:51.649Z,4.20
2022-10-02T06:48:51.947Z,4.30
2022-10-02T06:49:51.609Z,4.20
2022-10-02T06:50:51.986Z,4.50
2022-10-02T06:51:51.587Z,4.60
2022-10-02T06:52:51.589Z,4.70
2022-10-02T06:53:51.572Z,4.50
2022-10-02T06:54:51.555Z,4.50
2022-10-02T06:55:51.554Z,4.60
2022-10-02T06:56:51.568Z,4.80
2022-10-02T06:57:51.529Z,4.80
2022-10-02T06:58:51.508Z,4.80
2022-10-02T06:59:51.497Z,4.60
2022-10-02T07:00:51.529Z,5.10
2022-10-02T07:01:56.410Z,4.90
2022-10-02T07:02:52.469Z,5.10
2022-10-02T07:03:51.447Z,5.30
2022-10-02T07:04:51.436Z,5.20
2022-10-02T07:05:51.448Z,4.70
2022-10-02T07:06:51.451Z,5.00
2022-10-02T07:07:51.457Z,5.30
2022-10-02T07:08:51.466Z,4.80
2022-10-02T07:09:51.406Z,5.20
2022-10-02T07:10:51.378Z,5.40
2022-10-02T07:11:51.407Z,5.70
2022-10-02T07:12:51.406Z,5.40
2022-10-02T07:13:51.370Z,5.60
2022-10-02T07:14:51.340Z,5.60
2022-10-02T07:15:51.443Z,5.50
2022-10-02T07:16:51.397Z,5.30
2022-10-02T07:17:51.447Z,5.50
2022-10-02T07:18:51.287Z,5.30
2022-10-02T07:19:51.487Z,5.40
2022-10-02T07:20:51.289Z,5.70
2022-10-02T07:21:51.278Z,5.20
2022-10-02T07:22:51.259Z,5.40
2022-10-02T07:23:51.247Z,5.40
2022-10-02T07:24:51.287Z,5.10
2022-10-02T07:25:51.220Z,5.00
2022-10-02T07:26:51.308Z,5.60
2022-10-02T07:27:51.268Z,6.60
2022-10-02T07:28:51.237Z,5.10
2022-10-02T07:29:51.163Z,5.40
2022-10-02T07:30:51.170Z,5.50
2022-10-02T07:31:51.180Z,5.10
2022-10-02T07:32:51.148Z,5.20
2022-10-02T07:33:51.227Z,5.40
2022-10-02T07:34:51.127Z,4.50
2022-10-02T07:35:51.089Z,4.90
2022-10-02T07:36:51.268Z,4.90
2022-10-02T07:37:51.079Z,5.00
2022-10-02T07:38:51.161Z,5.80
2022-10-02T07:39:51.226Z,5.30
2022-10-02T07:40:51.109Z,5.40
2022-10-02T07:41:51.069Z,4.90
2022-10-02T07:42:51.121Z,5.90
2022-10-02T07:43:51.062Z,5.50
2022-10-02T07:44:51.046Z,5.20
2022-10-02T07:45:58.059Z,5.90
2022-10-02T07:46:50.985Z,6.00
2022-10-02T07:47:51.046Z,5.50
2022-10-02T07:48:50.934Z,5.70
2022-10-02T07:49:50.935Z,6.10
2022-10-02T07:50:50.945Z,5.40
2022-10-02T07:51:50.937Z,6.40
2022-10-02T07:52:50.908Z,6.20
2022-10-02T07:53:50.887Z,5.80
2022-10-02T07:54:50.894Z,6.30
2022-10-02T07:55:50.915Z,6.30
2022-10-02T07:56:50.904Z,6.30
2022-10-02T07:57:50.845Z,6.50
2022-10-02T07:58:50.825Z,6.20
2022-10-02T07:59:50.815Z,6.70
2022-10-02T08:00:50.805Z,6.90
2022-10-02T08:01:50.907Z,6.60
2022-10-02T08:02:50.881Z,6.30
2022-10-02T08:03:50.781Z,6.70
2022-10-02T08:04:50.763Z,7.00
2022-10-02T08:05:50.766Z,5.90
2022-10-02T08:06:50.764Z,6.10
2022-10-02T08:07:50.921Z,6.30
2022-10-02T08:08:50.825Z,6.80
2022-10-02T08:09:50.868Z,6.10
2022-10-02T08:10:50.694Z,6.40
2022-10-02T08:11:50.704Z,6.40
2022-10-02T08:12:50.714Z,6.10
2022-10-02T08:13:51.407Z,5.90
2022-10-02T08:14:50.644Z,6.30
2022-10-02T08:15:51.037Z,5.90
2022-10-02T08:16:51.478Z,6.20
2022-10-02T08:17:50.724Z,6.90
2022-10-02T08:18:50.682Z,6.50
2022-10-02T08:19:50.693Z,6.30
2022-10-02T08:20:50.606Z,6.40
2022-10-02T08:21:50.613Z,6.50
2022-10-02T08:22:50.624Z,7.00
2022-10-02T08:23:50.584Z,7.10
2022-10-02T08:24:50.618Z,7.40
2022-10-02T08:25:50.733Z,7.50
2022-10-02T08:26:50.609Z,7.50
2022-10-02T08:27:50.867Z,7.20
2022-10-02T08:28:50.504Z,6.90
2022-10-02T08:29:50.533Z,6.60
2022-10-02T08:30:50.485Z,7.20
2022-10-02T08:31:50.557Z,7.10
2022-10-02T08:32:50.576Z,7.30
2022-10-02T08:33:50.475Z,7.80
2022-10-02T08:34:50.435Z,7.80
2022-10-02T08:35:50.436Z,8.00
2022-10-02T08:36:50.428Z,7.40
2022-10-02T08:37:50.405Z,7.20
2022-10-02T08:38:54.449Z,7.40
2022-10-02T08:39:50.419Z,7.20
2022-10-02T08:40:50.375Z,7.60
2022-10-02T08:41:50.378Z,7.80
2022-10-02T08:42:50.356Z,7.60
2022-10-02T08:43:50.336Z,7.90
2022-10-02T08:44:50.326Z,7.30
2022-10-02T08:45:50.378Z,6.80
2022-10-02T08:46:50.349Z,7.70
2022-10-02T08:47:50.295Z,6.40
2022-10-02T08:48:50.295Z,7.10
2022-10-02T08:49:50.276Z,6.30
2022-10-02T08:50:50.299Z,7.40
2022-10-02T08:51:50.245Z,7.60
2022-10-02T08:52:50.247Z,6.50
2022-10-02T08:53:50.238Z,7.10
2022-10-02T08:54:50.217Z,6.70
2022-10-02T08:55:50.221Z,7.30
2022-10-02T08:56:50.254Z,6.90
2022-10-02T08:57:50.187Z,6.50
2022-10-02T08:58:50.177Z,7.00
2022-10-02T08:59:50.166Z,6.60
2022-10-02T09:00:50.183Z,6.80
2022-10-02T09:01:50.212Z,5.80
2022-10-02T09:02:50.255Z,6.90
2022-10-02T09:03:50.115Z,6.30
2022-10-02T09:04:50.146Z,4.50
2022-10-02T09:05:50.105Z,6.00
2022-10-02T09:06:50.085Z,5.20
2022-10-02T09:07:50.066Z,5.40
2022-10-02T09:08:50.137Z,6.20
2022-10-02T09:09:50.053Z,5.90
2022-10-02T09:10:50.046Z,5.80
2022-10-02T09:11:50.058Z,5.60
2022-10-02T09:12:50.066Z,5.70
2022-10-02T09:13:50.006Z,5.90
2022-10-02T09:14:50.015Z,5.70
2022-10-02T09:15:49.986Z,6.20
2022-10-02T09:16:50.020Z,6.10
2022-10-02T09:17:49.966Z,6.50
2022-10-02T09:18:50.006Z,5.90
2022-10-02T09:19:49.975Z,6.00
2022-10-02T09:20:49.945Z,6.20
2022-10-02T09:21:49.964Z,7.20
2022-10-02T09:22:49.925Z,6.70
2022-10-02T09:23:49.895Z,6.40
2022-10-02T09:24:49.885Z,6.50
2022-10-02T09:25:49.875Z,6.40
2022-10-02T09:26:49.864Z,7.10
2022-10-02T09:27:49.944Z,6.00
2022-10-02T09:28:49.887Z,6.40
2022-10-02T09:29:49.875Z,6.50
2022-10-02T09:30:49.824Z,7.00
2022-10-02T09:31:49.896Z,6.30
2022-10-02T09:32:49.794Z,6.80
2022-10-02T09:33:49.796Z,6.80
2022-10-02T09:34:49.785Z,6.90
2022-10-02T09:35:49.816Z,6.10
2022-10-02T09:36:49.757Z,6.00
2022-10-02T09:37:49.742Z,6.10
2022-10-02T09:38:49.736Z,6.00
2022-10-02T09:39:49.724Z,6.40
2022-10-02T09:40:49.714Z,6.80
2022-10-02T09:41:49.732Z,6.10
2022-10-02T09:42:49.712Z,6.60
2022-10-02T09:43:49.755Z,6.10
2022-10-02T09:44:49.705Z,5.20
2022-10-02T09:45:49.748Z,5.60
2022-10-02T09:46:49.654Z,5.60
2022-10-02T09:47:49.662Z,6.80
2022-10-02T09:48:49.625Z,6.20
2022-10-02T09:49:49.616Z,6.30
2022-10-02T09:50:49.723Z,6.00
2022-10-02T09:51:49.596Z,6.30
2022-10-02T09:52:49.643Z,6.30
2022-10-02T09:53:49.595Z,6.90
2022-10-02T09:54:49.566Z,5.70
2022-10-02T09:55:49.557Z,6.20
2022-10-02T09:56:49.846Z,6.60
2022-10-02T09:57:49.526Z,5.90
2022-10-02T09:58:49.525Z,5.90
2022-10-02T09:59:49.522Z,5.90
2022-10-02T10:00:49.569Z,5.80
2022-10-02T10:01:49.604Z,5.90
2022-10-02T10:02:49.531Z,6.30
2022-10-02T10:03:49.465Z,6.30
2022-10-02T10:05:04.956Z,6.00
2022-10-02T10:05:50.456Z,6.10
2022-10-02T10:06:49.447Z,4.70
2022-10-02T10:07:49.476Z,5.50
2022-10-02T10:08:49.417Z,3.80
2022-10-02T10:09:49.395Z,5.00
2022-10-02T10:10:49.396Z,4.00
2022-10-02T10:11:49.388Z,4.10
2022-10-02T10:12:49.377Z,4.10
2022-10-02T10:13:52.546Z,3.30
2022-10-02T10:14:49.361Z,4.70
2022-10-02T10:15:49.336Z,4.50
2022-10-02T10:16:49.363Z,4.40
2022-10-02T10:17:49.354Z,5.00
2022-10-02T10:18:49.364Z,5.00
2022-10-02T10:19:49.295Z,4.00
2022-10-02T10:20:49.287Z,4.60
2022-10-02T10:21:49.333Z,4.20
2022-10-02T10:22:49.285Z,3.70
2022-10-02T10:23:49.275Z,3.90
2022-10-02T10:24:49.257Z,3.70
2022-10-02T10:25:49.227Z,3.30
2022-10-02T10:26:49.223Z,3.30
2022-10-02T10:27:49.290Z,3.90
2022-10-02T10:28:49.194Z,4.20
2022-10-02T10:29:49.234Z,3.50
2022-10-02T10:30:49.217Z,2.90
2022-10-02T10:31:49.254Z,3.30
2022-10-02T10:32:49.155Z,3.60
2022-10-02T10:33:49.135Z,3.20
2022-10-02T10:34:49.125Z,3.40
2022-10-02T10:35:49.115Z,3.30
2022-10-02T10:36:49.105Z,3.20
2022-10-02T10:37:49.126Z,3.20
2022-10-02T10:38:49.097Z,4.00
2022-10-02T10:39:49.082Z,3.00
2022-10-02T10:40:49.082Z,3.40
2022-10-02T10:41:49.056Z,3.40
2022-10-02T10:43:06.551Z,3.70
2022-10-02T10:43:50.055Z,3.70
2022-10-02T10:44:49.027Z,3.60
2022-10-02T10:45:54.331Z,3.40
2022-10-02T10:46:49.003Z,3.90
2022-10-02T10:47:49.006Z,3.50
2022-10-02T10:48:49.858Z,4.20
2022-10-02T10:49:48.967Z,3.90
2022-10-02T10:50:48.956Z,3.70
2022-10-02T10:51:48.967Z,3.80
2022-10-02T10:52:48.937Z,4.40
2022-10-02T10:53:48.916Z,4.20
2022-10-02T10:54:48.905Z,4.10
2022-10-02T10:55:48.925Z,4.40
2022-10-02T10:56:48.896Z,3.80
2022-10-02T10:57:48.878Z,3.70
2022-10-02T10:58:48.899Z,4.00
2022-10-02T10:59:48.870Z,3.90
2022-10-02T11:00:48.918Z,3.60
2022-10-02T11:01:48.836Z,2.60
2022-10-02T11:02:48.826Z,3.30
2022-10-02T11:03:48.855Z,3.20
2022-10-02T11:04:48.804Z,2.80
2022-10-02T11:05:48.793Z,2.90
2022-10-02T11:06:48.788Z,2.90
2022-10-02T11:07:48.838Z,3.00
2022-10-02T11:08:48.770Z,3.40
2022-10-02T11:09:48.766Z,2.90
2022-10-02T11:10:48.738Z,3.10
2022-10-02T11:11:48.747Z,2.70
2022-10-02T11:12:48.716Z,2.60
2022-10-02T11:13:48.706Z,2.50
2022-10-02T11:14:48.697Z,2.90
2022-10-02T11:15:48.736Z,3.00
2022-10-02T11:16:48.753Z,3.00
2022-10-02T11:17:48.699Z,2.50
2022-10-02T11:18:48.660Z,2.70
2022-10-02T11:19:48.657Z,2.70
2022-10-02T11:20:48.626Z,3.00
2022-10-02T11:21:48.656Z,2.40
2022-10-02T11:22:48.637Z,2.20
2022-10-02T11:23:48.599Z,2.00
2022-10-02T11:24:48.596Z,2.80
2022-10-02T11:25:48.577Z,2.40
2022-10-02T11:26:48.570Z,2.60
2022-10-02T11:27:48.608Z,2.70
2022-10-02T11:28:48.587Z,2.80
2022-10-02T11:29:48.535Z,2.40
2022-10-02T11:30:48.531Z,2.20
2022-10-02T11:31:48.545Z,2.10
2022-10-02T11:32:48.510Z,2.30
2022-10-02T11:33:48.516Z,2.60
2022-10-02T11:34:48.539Z,2.40
2022-10-02T11:35:48.500Z,4.80
2022-10-02T11:36:48.457Z,3.20
2022-10-02T11:37:48.445Z,2.90
2022-10-02T11:38:48.450Z,2.60
2022-10-02T11:39:48.428Z,2.40
2022-10-02T11:40:48.416Z,2.00
2022-10-02T11:41:51.819Z,1.80
2022-10-02T11:42:48.386Z,2.00
2022-10-02T11:43:48.379Z,2.40
2022-10-02T11:44:48.377Z,2.20
2022-10-02T11:45:48.397Z,2.30
2022-10-02T11:46:48.348Z,2.50
2022-10-02T11:47:48.446Z,2.10
2022-10-02T11:48:48.327Z,2.10
2022-10-02T11:49:48.315Z,2.90
2022-10-02T11:50:48.307Z,2.40
2022-10-02T11:51:48.307Z,2.90
2022-10-02T11:52:48.654Z,2.70
2022-10-02T11:53:48.308Z,3.80
2022-10-02T11:54:48.308Z,2.70
2022-10-02T11:55:48.247Z,2.80
2022-10-02T11:56:48.237Z,2.30
2022-10-02T11:57:48.217Z,2.10
2022-10-02T11:58:48.229Z,2.10
2022-10-02T11:59:48.206Z,1.90
2022-10-02T12:00:48.248Z,2.00
2022-10-02T12:01:48.187Z,1.90
2022-10-02T12:02:48.262Z,1.40
2022-10-02T12:03:48.168Z,1.70
2022-10-02T12:04:48.168Z,2.40
2022-10-02T12:05:48.147Z,2.10
2022-10-02T12:06:48.199Z,1.90
2022-10-02T12:07:48.133Z,2.20
2022-10-02T12:08:48.108Z,2.40
2022-10-02T12:09:48.109Z,2.10
2022-10-02T12:10:48.097Z,2.20
2022-10-02T12:11:48.068Z,1.90
2022-10-02T12:12:48.098Z,1.80
2022-10-02T12:13:48.063Z,1.80
2022-10-02T12:14:48.047Z,2.10
2022-10-02T12:15:53.329Z,2.00
2022-10-02T12:16:48.110Z,1.80
2022-10-02T12:17:48.028Z,1.70
2022-10-02T12:18:48.067Z,1.80
2022-10-02T12:19:48.025Z,2.00
2022-10-02T12:20:47.997Z,1.90
2022-10-02T12:21:47.966Z,2.20
2022-10-02T12:22:47.957Z,2.20
2022-10-02T12:23:47.938Z,2.30
2022-10-02T12:24:51.389Z,2.30
2022-10-02T12:25:48.968Z,2.30
2022-10-02T12:26:47.916Z,2.20
2022-10-02T12:27:47.935Z,2.00
2022-10-02T12:28:47.899Z,1.50
2022-10-02T12:29:47.877Z,1.70
2022-10-02T12:30:47.913Z,1.70
2022-10-02T12:31:47.919Z,2.20
2022-10-02T12:32:47.867Z,2.20
2022-10-02T12:33:49.240Z,2.00
2022-10-02T12:34:47.828Z,2.10
2022-10-02T12:35:47.808Z,1.50
2022-10-02T12:36:47.839Z,2.20
2022-10-02T12:37:47.800Z,2.20
2022-10-02T12:38:47.778Z,2.20
2022-10-02T12:39:47.769Z,2.00
2022-10-02T12:40:47.778Z,1.90
2022-10-02T12:41:47.750Z,2.00
2022-10-02T12:42:47.741Z,1.50
2022-10-02T12:43:47.729Z,1.60
2022-10-02T12:44:47.876Z,1.50
2022-10-02T12:45:47.843Z,2.00
2022-10-02T12:46:47.720Z,1.90
2022-10-02T12:47:47.680Z,2.10
2022-10-02T12:48:47.668Z,2.40
2022-10-02T12:49:47.680Z,2.00
2022-10-02T12:50:47.648Z,2.30
2022-10-02T12:51:47.669Z,2.00
2022-10-02T12:52:47.630Z,2.10
2022-10-02T12:53:47.639Z,1.70
2022-10-02T12:54:47.629Z,2.30
2022-10-02T12:55:47.619Z,2.10
2022-10-02T12:56:47.620Z,2.10
2022-10-02T12:57:47.581Z,1.90
2022-10-02T12:58:47.581Z,2.20
2022-10-02T12:59:47.556Z,1.80
2022-10-02T13:00:47.589Z,2.60
2022-10-02T13:01:47.571Z,1.70
2022-10-02T13:03:00.874Z,1.90
2022-10-02T13:03:48.508Z,2.10
2022-10-02T13:04:47.490Z,2.00
2022-10-02T13:05:47.491Z,2.70
2022-10-02T13:06:47.517Z,2.60
2022-10-02T13:07:47.620Z,2.00
2022-10-02T13:08:47.451Z,2.00
2022-10-02T13:09:47.439Z,1.80
2022-10-02T13:10:47.427Z,2.10
2022-10-02T13:11:47.459Z,1.90
2022-10-02T13:12:47.409Z,2.50
2022-10-02T13:13:47.398Z,2.20
2022-10-02T13:14:47.400Z,2.00
2022-10-02T13:15:47.379Z,2.20
2022-10-02T13:16:47.420Z,1.90
2022-10-02T13:17:47.379Z,2.00
2022-10-02T13:18:47.429Z,2.00